• Join FlightAware (Why Join?)
  • Login
  • US Flag 
05:27AM EDT


 

Airport Tracker/Info


-or-


 

Live Flight TrackerFlight Track Log ✈ N45EJ ✈ 28-Dec-2013 ✈ KSLC - KPWK

Flight Track Log - Related Links

Times and Time Zones

All times are in EST time to prevent confusion due to time zone crossing. See the N45EJ flight status page for this flight to view local times or setup timezone preferences in your user account.

Time Position Orientation Groundspeed Altitude Reporting Facility
EST Latitude Longitude Course Direction KTS MPH feet Rate Location/Type
05:14PM 40.8081 -111.9647 352° North 199 229 5,000  Level Salt Lake Center
05:15PM 40.8683 -111.9753 352° North 251 289 7,700 2,760 Climbing Salt Lake Center
05:15PM 40.9008 -111.9792 355° North 242 278 9,400 3,420 Climbing Salt Lake Center
05:16PM 40.9453 -111.8969 54° Northeast 292 336 13,600 3,540 Climbing Salt Lake Center
05:17PM 40.9428 -111.7861 92° East 311 358 16,700 2,700 Climbing Salt Lake Center
05:18PM 40.9331 -111.6633 96° East 340 391 19,200 2,580 Climbing Salt Lake Center
05:19PM 40.9656 -111.5425 70° East 353 406 22,100 2,940 Climbing Salt Lake Center
05:20PM 41.0064 -111.3889 71° East 370 426 25,400 2,760 Climbing Salt Lake Center
05:21PM 41.0403 -111.2567 71° East 380 437 27,900 2,160 Climbing Salt Lake Center
05:22PM 41.0750 -111.1167 72° East 398 458 29,900 1,920 Climbing Salt Lake Center
05:23PM 41.1122 -110.9725 71° East 411 473 31,900 1,860 Climbing Salt Lake Center
05:25PM 41.1525 -110.8122 71° East 418 481 33,800 1,620 Climbing Salt Lake Center
05:26PM 41.1881 -110.6694 72° East 425 489 35,300 1,440 Climbing Salt Lake Center
05:27PM 41.2314 -110.5000 71° East 433 498 36,800 1,260 Climbing Salt Lake Center
05:28PM 41.2667 -110.3536 72° East 436 502 37,900 1,740 Climbing Salt Lake Center
05:29PM 41.3056 -110.1975 72° East 400 460 40,500 1,500 Climbing Salt Lake Center
05:30PM 41.3381 -110.0683 71° East 387 445 41,000 240 Climbing Salt Lake Center
05:31PM 41.3761 -109.9108 72° East 399 459 41,000  Level Salt Lake Center
05:32PM 41.4111 -109.7672 72° East 420 483 41,000  Level Salt Lake Center
05:33PM 41.4528 -109.5928 72° East 441 507 41,000  Level Salt Lake Center
05:34PM 41.4911 -109.4383 72° East 453 521 41,000  Level Salt Lake Center
05:35PM 41.5286 -109.2778 73° East 466 536 41,000  Level Salt Lake Center
05:36PM 41.5739 -109.0856 72° East 475 547 41,000  Level Salt Lake Center
05:37PM 41.6033 -108.9206 77° East 473 544 41,000  Level Salt Lake Center
05:38PM 41.6219 -108.7550 81° East 470 541 41,000  Level Salt Lake Center
05:39PM 41.6461 -108.5631 80° East 468 539 41,000  Level Salt Lake Center
05:40PM 41.6661 -108.3967 81° East 472 543 41,000  Level Salt Lake Center
05:41PM 41.6892 -108.1989 81° East 480 552 41,000  Level Salt Lake Center
05:42PM 41.7103 -108.0272 81° East 485 558 41,000  Level Salt Lake Center
05:43PM 41.7339 -107.8278 81° East 489 563 41,000  Level Salt Lake Center
05:44PM 41.7522 -107.6531 82° East 489 563 41,000  Level Denver Center
05:45PM 41.7722 -107.4789 81° East 494 568 41,000  Level Denver Center
05:46PM 41.7950 -107.2767 81° East 494 568 41,000  Level Denver Center
05:47PM 41.8139 -107.1025 82° East 494 568 41,000  Level Denver Center
05:48PM 41.8353 -106.8992 82° East 496 571 41,000  Level Denver Center
05:49PM 41.8539 -106.7253 82° East 493 567 41,000  Level Denver Center
05:50PM 41.8753 -106.5217 82° East 494 568 41,000  Level Denver Center
05:51PM 41.8925 -106.3494 82° East 499 574 41,000  Level Denver Center
05:52PM 41.9136 -106.1458 82° East 494 568 41,000  Level Denver Center
05:53PM 41.9294 -105.9706 83° East 494 568 41,000  Level Denver Center
05:55PM 41.9506 -105.7656 82° East 498 573 41,000  Level Denver Center
05:56PM 41.9700 -105.5636 83° East 491 565 41,000  Level Denver Center
05:57PM 41.9892 -105.3581 83° East 498 573 41,000  Level Denver Center
05:58PM 42.0047 -105.1825 83° East 497 572 41,000  Level Denver Center
05:59PM 42.0228 -104.9831 83° East 487 560 41,000  Level Denver Center
06:00PM 42.0375 -104.8106 83° East 487 560 41,000  Level Denver Center
06:01PM 42.0556 -104.6083 83° East 491 565 41,000  Level Denver Center
06:02PM 42.0697 -104.4336 84° East 493 567 41,000  Level Denver Center
06:03PM 42.0861 -104.2358 84° East 482 555 41,000  Level Denver Center
06:04PM 42.1006 -104.0664 83° East 479 551 41,000  Level Denver Center
06:05PM 42.1164 -103.8672 84° East 481 554 41,000  Level Denver Center
06:06PM 42.1303 -103.6969 84° East 481 554 41,000  Level Denver Center
06:07PM 42.1456 -103.4975 84° East 482 555 41,000  Level Denver Center
06:08PM 42.1586 -103.3250 84° East 484 557 41,000  Level Denver Center
06:09PM 42.1733 -103.1200 84° East 492 566 41,000  Level Denver Center
06:10PM 42.1844 -102.9450 85° East 490 564 41,000  Level Denver Center
06:11PM 42.2006 -102.7392 84° East 495 570 41,000  Level Denver Center
06:12PM 42.2128 -102.5628 85° East 495 570 41,000  Level Denver Center
06:13PM 42.2256 -102.3567 85° East 494 568 41,000  Level Denver Center
06:14PM 42.2369 -102.1839 85° East 494 568 41,000  Level Denver Center
06:15PM 42.2511 -101.9775 85° East 494 568 41,000  Level Denver Center
06:16PM 42.2619 -101.7997 85° East 495 570 41,000  Level Denver Center
06:17PM 42.2742 -101.5908 85° East 498 573 41,000  Level Denver Center
06:18PM 42.2853 -101.4106 85° East 500 575 41,000  Level Denver Center
06:19PM 42.2947 -101.2325 86° East 499 574 41,000  Level Denver Center
06:20PM 42.3053 -101.0239 86° East 498 573 41,000  Level Denver Center
06:21PM 42.3161 -100.8458 85° East 496 571 41,000  Level Denver Center
06:23PM 42.3250 -100.6694 86° East 492 566 41,000  Level Denver Center
06:24PM 42.3358 -100.4628 86° East 494 568 41,000  Level Denver Center
06:24PM 42.3425 -100.3275 86° East 494 568 41,000  Level Minneapolis Center
06:25PM 42.3511 -100.1422 86° East 494 568 41,000  Level Minneapolis Center
06:26PM 42.3583 -99.9553 87° East 495 570 41,000  Level Minneapolis Center
06:27PM 42.3675 -99.7672 86° East 498 573 41,000  Level Minneapolis Center
06:28PM 42.3758 -99.5783 87° East 499 574 41,000  Level Minneapolis Center
06:29PM 42.3839 -99.3900 87° East 501 577 41,000  Level Minneapolis Center
06:30PM 42.3908 -99.2019 87° East 500 575 41,000  Level Minneapolis Center
06:31PM 42.3989 -99.0158 87° East 497 572 41,000  Level Minneapolis Center
06:32PM 42.4047 -98.8300 88° East 494 568 41,000  Level Minneapolis Center
06:33PM 42.4128 -98.6053 87° East 496 571 41,000  Level Minneapolis Center
06:34PM 42.4175 -98.4167 88° East 498 573 41,000  Level Minneapolis Center
06:35PM 42.4239 -98.2286 87° East 499 574 41,000  Level Minneapolis Center
06:36PM 42.4297 -98.0419 88° East 497 572 41,000  Level Minneapolis Center
06:38PM 42.4350 -97.8547 88° East 497 572 41,000  Level Minneapolis Center
06:39PM 42.4392 -97.6689 88° East 494 568 41,000  Level Minneapolis Center
06:40PM 42.4431 -97.4842 88° East 492 566 41,000  Level Minneapolis Center
06:41PM 42.4483 -97.2989 88° East 491 565 41,000  Level Minneapolis Center
06:42PM 42.4514 -97.1156 89° East 489 563 41,000  Level Minneapolis Center
06:43PM 42.4558 -96.9317 88° East 489 563 41,000  Level Minneapolis Center
06:44PM 42.4589 -96.7469 89° East 489 563 41,000  Level Minneapolis Center
06:45PM 42.4617 -96.5247 89° East 490 564 41,000  Level Minneapolis Center
06:46PM 42.4644 -96.3408 89° East 489 563 41,000  Level Minneapolis Center
06:47PM 42.4667 -96.1536 89° East 492 566 41,000  Level Minneapolis Center
06:48PM 42.4689 -95.9672 89° East 495 570 41,000  Level Minneapolis Center
06:49PM 42.4708 -95.7800 89° East 495 570 41,000  Level Minneapolis Center
06:50PM 42.4722 -95.5886 89° East 502 578 41,000  Level Minneapolis Center
06:51PM 42.4725 -95.4025 90° East 496 571 41,000  Level Minneapolis Center
06:52PM 42.4744 -95.2169 89° East 493 567 41,000  Level Minneapolis Center
06:53PM 42.4747 -95.0308 90° East 494 568 41,000  Level Minneapolis Center
06:54PM 42.4733 -94.8072 90° East 494 568 41,000  Level Minneapolis Center
06:55PM 42.4739 -94.6217 90° East 493 567 41,000  Level Minneapolis Center
06:56PM 42.4731 -94.4553 90° East 495 570 41,000  Level Minneapolis Center
06:57PM 42.4714 -94.2489 91° East 495 570 41,000  Level Minneapolis Center
06:58PM 42.4717 -94.0494 90° East 493 567 41,000  Level Minneapolis Center
06:59PM 42.4694 -93.8642 91° East 496 571 41,000 -240 Level Minneapolis Center
07:00PM 42.4675 -93.6800 91° East 495 570 40,600 -1,200 Descending Minneapolis Center
07:01PM 42.4653 -93.4989 91° East 488 562 38,600 -1,800 Descending Minneapolis Center
07:02PM 42.4644 -93.3225 90° East 476 548 37,000 -840 Descending Minneapolis Center
07:03PM 42.4631 -93.1419 91° East 482 555 37,000 -120 Level Minneapolis Center
07:04PM 42.4597 -92.9939 92° East 488 562 36,800 -1,260 Descending Chicago Center
07:05PM 42.4553 -92.7786 92° East 482 555 34,700 -1,860 Descending Chicago Center
07:06PM 42.4531 -92.6000 91° East 480 552 33,000 -1,200 Descending Chicago Center
07:07PM 42.4492 -92.4194 92° East 485 558 32,300 -840 Descending Chicago Center
07:08PM 42.4450 -92.2383 92° East 487 560 31,300 -1,020 Descending Chicago Center
07:09PM 42.4406 -92.0614 92° East 478 550 30,300 -1,080 Descending Chicago Center
07:10PM 42.4367 -91.8483 91° East 479 551 29,100 -1,080 Descending Chicago Center
07:11PM 42.4314 -91.6728 92° East 477 549 28,100 -1,020 Descending Chicago Center
07:12PM 42.4272 -91.4978 92° East 476 548 27,100 -1,020 Descending Chicago Center
07:13PM 42.4219 -91.3225 92° East 473 544 26,100 -1,020 Descending Chicago Center
07:14PM 42.4158 -91.1475 93° East 473 544 25,100 -1,080 Descending Chicago Center
07:15PM 42.4086 -90.9392 93° East 469 540 23,900 -1,080 Descending Chicago Center
07:16PM 42.4044 -90.7650 92° East 468 539 22,900 -1,080 Descending Chicago Center
07:17PM 42.3911 -90.5917 96° East 469 540 21,700 -1,740 Descending Chicago Center
07:18PM 42.3717 -90.4247 99° East 463 533 19,400 -2,400 Descending Chicago Center
07:19PM 42.3531 -90.2594 99° East 456 525 16,900 -2,460 Descending Chicago Center
07:20PM 42.3292 -90.0667 99° East 444 511 14,400 -1,860 Descending Chicago Center
07:21PM 42.3100 -89.9075 99° East 429 494 13,100 -1,260 Descending Chicago Center
07:22PM 42.2936 -89.7653 99° East 389 448 11,900 -1,320 Descending Chicago Center
07:24PM 42.2778 -89.6381 100° East 351 404 10,400 -1,260 Descending Chicago Center
07:25PM 42.2636 -89.5169 99° East 333 383 9,400 -1,020 Descending Chicago Center
07:26PM 42.2503 -89.4042 99° East 314 361 8,400 -1,020 Descending Chicago Center
07:27PM 42.2369 -89.2886 99° East 312 359 7,400 -1,080 Descending Chicago Center
07:28PM 42.2353 -89.1514 91° East 321 369 6,200 -1,140 Descending Chicago Center
07:29PM 42.2608 -89.0406 73° East 314 361 5,100 -600 Descending Chicago Center
07:30PM 42.2839 -88.9267 75° East 314 361 5,000 -60 Descending Chicago Center
07:31PM 42.3050 -88.8169 75° East 310 357 5,000  Level Chicago Center
07:32PM 42.3289 -88.7119 73° East 304 350 5,000  Level Chicago Center
07:33PM 42.3317 -88.5936 88° East 317 365 5,000 -180 Level Chicago Center
07:34PM 42.3233 -88.4814 96° East 308 354 4,700 -480 Descending Chicago Center
07:35PM 42.3169 -88.3425 94° East 308 354 4,100 -360 Descending Chicago Center
07:36PM 42.3122 -88.2292 93° East 307 353 4,000 -60 Descending Chicago Center
07:37PM 42.3078 -88.1136 93° East 307 353 4,000 -360 Level Chicago Center
07:38PM 42.3042 -88.0036 93° East 302 348 3,300 -780 Descending Chicago Center
07:39PM 42.2575 -87.9631 147° Southeast 244 281 2,500 -480 Descending Chicago Center
07:40PM 42.2175 -87.9506 167° South 187 215 2,400 -300 Descending Chicago Center
07:41PM 42.1839 -87.9403 167° South 130 150 2,000 -300 Descending Chicago Center
07:42PM 42.1589 -87.9303 163° South 120 138 1,800 -240 Descending Chicago Center